createdAt,value
2023-03-07T00:00:12.357Z,23.45
2023-03-07T00:02:40.626Z,17.08
2023-03-07T00:05:09.679Z,27.70
2023-03-07T00:07:38.720Z,23.02
2023-03-07T00:10:07.924Z,17.25
2023-03-07T00:12:36.099Z,21.13
2023-03-07T00:15:04.634Z,21.38
2023-03-07T00:17:38.276Z,20.05
2023-03-07T00:20:08.260Z,18.33
2023-03-07T00:22:36.872Z,20.48
2023-03-07T00:25:05.681Z,19.05
2023-03-07T00:27:34.703Z,20.35
2023-03-07T00:30:04.248Z,22.40
2023-03-07T00:32:33.984Z,20.92
2023-03-07T00:35:02.466Z,19.05
2023-03-07T00:37:30.849Z,16.95
2023-03-07T00:39:59.010Z,20.08
2023-03-07T00:42:27.193Z,20.58
2023-03-07T00:44:56.100Z,17.67
2023-03-07T00:47:24.258Z,18.65
2023-03-07T00:49:54.021Z,12.85
2023-03-07T00:52:22.278Z,17.75
2023-03-07T00:54:50.680Z,24.08
2023-03-07T00:57:19.459Z,19.10
2023-03-07T00:59:47.812Z,20.15
2023-03-07T01:02:16.036Z,16.25
2023-03-07T01:04:46.266Z,25.58
2023-03-07T01:07:16.009Z,22.90
2023-03-07T01:09:46.556Z,22.15
2023-03-07T01:12:15.109Z,23.90
2023-03-07T01:14:43.524Z,20.05
2023-03-07T01:17:11.765Z,18.38
2023-03-07T01:19:39.948Z,19.42
2023-03-07T01:22:08.343Z,28.05
2023-03-07T01:24:39.955Z,24.30
2023-03-07T01:27:08.158Z,24.42
2023-03-07T01:29:37.600Z,24.13
2023-03-07T01:32:06.155Z,21.52
2023-03-07T01:34:34.579Z,26.40
2023-03-07T01:37:02.779Z,26.85
2023-03-07T01:39:31.397Z,19.67
2023-03-07T01:42:06.361Z,18.63
2023-03-07T01:45:04.758Z,23.85
2023-03-07T01:47:41.386Z,24.85
2023-03-07T01:50:13.536Z,17.20
2023-03-07T01:52:44.538Z,24.55
2023-03-07T01:55:16.531Z,15.80
2023-03-07T01:57:50.122Z,18.63
2023-03-07T02:00:26.163Z,14.25
2023-03-07T02:03:03.368Z,20.60
2023-03-07T02:05:35.369Z,20.38
2023-03-07T02:08:05.250Z,19.83
2023-03-07T02:10:36.303Z,14.95
2023-03-07T02:13:06.095Z,16.50
2023-03-07T02:15:35.208Z,19.23
2023-03-07T02:18:05.063Z,18.38
2023-03-07T02:20:41.318Z,15.82
2023-03-07T02:23:19.056Z,15.50
2023-03-07T02:25:54.559Z,18.10
2023-03-07T02:28:24.212Z,20.92
2023-03-07T02:30:57.624Z,22.27
2023-03-07T02:33:28.766Z,18.80
2023-03-07T02:36:06.749Z,15.88
2023-03-07T02:38:39.970Z,21.30
2023-03-07T02:41:11.892Z,17.77
2023-03-07T02:43:41.653Z,23.33
2023-03-07T02:46:10.853Z,18.85
2023-03-07T02:48:39.802Z,18.70
2023-03-07T02:51:08.224Z,23.02
2023-03-07T02:53:36.537Z,20.90
2023-03-07T02:56:05.167Z,19.15
2023-03-07T02:58:33.478Z,22.30
2023-03-07T03:01:05.856Z,26.85
2023-03-07T03:03:34.139Z,26.55
2023-03-07T03:06:02.332Z,19.25
2023-03-07T03:08:31.430Z,21.67
2023-03-07T03:11:00.209Z,18.75
2023-03-07T03:13:29.774Z,21.23
2023-03-07T03:15:59.797Z,24.83
2023-03-07T03:18:31.390Z,21.17
2023-03-07T03:21:00.610Z,17.75
2023-03-07T03:23:29.503Z,13.40
2023-03-07T03:26:02.742Z,21.60
2023-03-07T03:28:33.409Z,18.88
2023-03-07T03:31:04.146Z,21.75
2023-03-07T03:33:34.772Z,17.95
2023-03-07T03:36:09.249Z,18.77
2023-03-07T03:38:37.640Z,20.77
2023-03-07T03:41:07.543Z,13.82
2023-03-07T03:43:38.054Z,16.67
2023-03-07T03:46:06.765Z,16.77
2023-03-07T03:48:36.492Z,18.67
2023-03-07T03:51:06.064Z,17.42
2023-03-07T03:53:35.418Z,27.95
2023-03-07T03:56:05.947Z,26.20
2023-03-07T03:58:35.116Z,44.78
2023-03-07T04:01:05.729Z,48.95
2023-03-07T04:03:34.488Z,41.15
2023-03-07T04:06:05.910Z,57.75
2023-03-07T04:08:34.799Z,59.42
2023-03-07T04:11:03.073Z,50.45
2023-03-07T04:13:31.347Z,46.85
2023-03-07T04:15:59.539Z,20.55
2023-03-07T04:18:27.744Z,19.63
2023-03-07T04:20:56.444Z,22.08
2023-03-07T04:23:26.429Z,14.88
2023-03-07T04:25:57.044Z,24.73
2023-03-07T04:28:27.619Z,23.85
2023-03-07T04:30:57.198Z,13.80
2023-03-07T04:33:27.358Z,22.73
2023-03-07T04:35:55.672Z,22.65
2023-03-07T04:38:25.447Z,15.88
2023-03-07T04:40:53.644Z,14.10
2023-03-07T04:43:22.649Z,15.07
2023-03-07T04:45:50.885Z,16.27
2023-03-07T04:48:19.135Z,14.82
2023-03-07T04:50:50.212Z,11.77
2023-03-07T04:53:18.732Z,19.23
2023-03-07T04:55:48.941Z,14.93
2023-03-07T04:58:17.166Z,14.02
2023-03-07T05:00:46.564Z,16.50
2023-03-07T05:03:15.681Z,14.63
2023-03-07T05:05:46.995Z,17.65
2023-03-07T05:08:15.476Z,13.73
2023-03-07T05:10:44.241Z,15.02
2023-03-07T05:13:14.341Z,14.02
2023-03-07T05:15:42.710Z,12.98
2023-03-07T05:18:10.984Z,13.57
2023-03-07T05:20:39.163Z,14.38
2023-03-07T05:23:07.346Z,11.73
2023-03-07T05:25:35.729Z,15.90
2023-03-07T05:28:04.088Z,15.85
2023-03-07T05:30:34.231Z,17.77
2023-03-07T05:33:03.055Z,12.23
2023-03-07T05:35:33.538Z,19.08
2023-03-07T05:38:02.966Z,20.40
2023-03-07T05:40:33.301Z,14.30
2023-03-07T05:43:01.568Z,14.63
2023-03-07T05:45:29.895Z,14.43
2023-03-07T05:47:59.712Z,12.70
2023-03-07T05:50:28.242Z,17.50
2023-03-07T05:52:56.648Z,14.73
2023-03-07T05:55:27.891Z,16.02
2023-03-07T05:57:56.350Z,13.93
2023-03-07T06:00:25.016Z,14.60
2023-03-07T06:02:59.264Z,13.93
2023-03-07T06:05:27.533Z,13.20
2023-03-07T06:07:55.969Z,13.35
2023-03-07T06:10:24.428Z,10.30
2023-03-07T06:12:53.232Z,11.27
2023-03-07T06:15:24.347Z,16.00
2023-03-07T06:17:59.157Z,12.43
2023-03-07T06:20:28.770Z,15.73
2023-03-07T06:22:57.099Z,14.57
2023-03-07T06:25:25.340Z,18.70
2023-03-07T06:27:59.556Z,15.45
2023-03-07T06:30:28.118Z,16.20
2023-03-07T06:32:56.961Z,17.95
2023-03-07T06:35:25.215Z,16.42
2023-03-07T06:37:55.089Z,13.88
2023-03-07T06:40:23.376Z,13.85
2023-03-07T06:42:53.647Z,12.45
2023-03-07T06:45:21.877Z,11.60
2023-03-07T06:47:50.277Z,15.13
2023-03-07T06:50:26.436Z,15.23
2023-03-07T06:52:59.809Z,20.02
2023-03-07T06:55:28.076Z,13.85
2023-03-07T06:57:56.461Z,15.05
2023-03-07T07:00:24.761Z,17.77
2023-03-07T07:02:53.602Z,21.13
2023-03-07T07:05:22.215Z,15.45
2023-03-07T07:07:50.564Z,15.13
2023-03-07T07:10:20.244Z,17.65
2023-03-07T07:12:48.995Z,16.38
2023-03-07T07:15:17.239Z,13.32
2023-03-07T07:17:45.511Z,20.42
2023-03-07T07:20:14.378Z,14.23
2023-03-07T07:22:43.163Z,13.80
2023-03-07T07:25:12.026Z,16.52
2023-03-07T07:27:42.332Z,12.50
2023-03-07T07:30:12.569Z,10.57
2023-03-07T07:32:41.220Z,13.40
2023-03-07T07:35:10.270Z,14.38
2023-03-07T07:37:38.872Z,12.80
2023-03-07T07:40:10.496Z,13.32
2023-03-07T07:42:39.232Z,19.58
2023-03-07T07:45:44.006Z,12.43
2023-03-07T07:48:17.120Z,14.25
2023-03-07T07:50:47.054Z,16.73
2023-03-07T07:53:16.960Z,12.20
2023-03-07T07:55:46.552Z,12.85
2023-03-07T07:58:14.872Z,17.88
2023-03-07T08:00:45.551Z,17.13
2023-03-07T08:03:13.907Z,18.27
2023-03-07T08:05:45.222Z,15.35
2023-03-07T08:08:13.363Z,14.88
2023-03-07T08:10:43.191Z,10.02
2023-03-07T08:13:13.633Z,9.15
2023-03-07T08:15:42.402Z,13.88
2023-03-07T08:18:12.015Z,12.85
2023-03-07T08:20:41.305Z,13.55
2023-03-07T08:23:09.600Z,9.88
2023-03-07T08:25:39.903Z,9.95
2023-03-07T08:28:08.060Z,13.52
2023-03-07T08:30:38.162Z,8.10
2023-03-07T08:33:06.356Z,13.95
2023-03-07T08:35:36.044Z,8.38
2023-03-07T08:38:06.834Z,11.05
2023-03-07T08:40:35.031Z,11.23
2023-03-07T08:43:03.794Z,11.70
2023-03-07T08:45:32.152Z,10.27
2023-03-07T08:48:00.360Z,10.52
2023-03-07T08:50:29.953Z,13.15
2023-03-07T08:52:59.548Z,10.98
2023-03-07T08:55:27.708Z,12.82
2023-03-07T08:57:55.907Z,11.70
2023-03-07T09:00:26.918Z,10.88
2023-03-07T09:02:58.450Z,16.45
2023-03-07T09:05:27.385Z,9.57
2023-03-07T09:07:55.942Z,13.55
2023-03-07T09:10:27.280Z,12.55
2023-03-07T09:12:55.823Z,18.40
2023-03-07T09:15:24.012Z,14.15
2023-03-07T09:17:52.561Z,11.52
2023-03-07T09:20:21.077Z,10.25
2023-03-07T09:22:51.564Z,10.63
2023-03-07T09:25:19.851Z,14.73
2023-03-07T09:27:51.826Z,9.73
2023-03-07T09:30:20.241Z,12.88
2023-03-07T09:32:48.422Z,10.32
2023-03-07T09:35:16.756Z,8.05
2023-03-07T09:37:44.957Z,9.35
2023-03-07T09:40:18.856Z,13.80
2023-03-07T09:42:58.215Z,11.10
2023-03-07T09:45:42.159Z,9.35
2023-03-07T09:49:02.996Z,12.50
2023-03-07T09:51:41.980Z,9.45
2023-03-07T09:54:14.349Z,10.05
2023-03-07T09:56:47.859Z,12.15
2023-03-07T09:59:23.906Z,9.25
2023-03-07T10:01:59.546Z,14.23
2023-03-07T10:04:34.200Z,9.93
2023-03-07T10:07:05.993Z,9.65
2023-03-07T10:09:34.967Z,7.57
2023-03-07T10:12:22.952Z,11.30
2023-03-07T10:15:20.624Z,7.50
2023-03-07T10:18:06.489Z,10.30
2023-03-07T10:20:42.521Z,7.13
2023-03-07T10:23:31.031Z,12.30
2023-03-07T10:26:08.357Z,10.07
2023-03-07T10:28:42.684Z,9.73
2023-03-07T10:31:23.599Z,10.15
2023-03-07T10:33:53.410Z,9.70
2023-03-07T10:36:23.674Z,8.48
2023-03-07T10:39:01.940Z,6.85
2023-03-07T10:41:30.851Z,10.63
2023-03-07T10:43:59.208Z,6.97
2023-03-07T10:46:31.590Z,8.13
2023-03-07T10:49:10.437Z,9.02
2023-03-07T10:51:52.132Z,6.35
2023-03-07T10:54:23.145Z,14.32
2023-03-07T10:57:12.686Z,8.45
2023-03-07T10:59:43.540Z,8.50
2023-03-07T11:02:33.174Z,9.63
2023-03-07T11:05:02.732Z,6.45
2023-03-07T11:07:34.487Z,9.05
2023-03-07T11:10:24.124Z,9.32
2023-03-07T11:12:52.451Z,9.13
2023-03-07T11:15:24.261Z,8.52
2023-03-07T11:17:54.490Z,11.75
2023-03-07T11:20:30.237Z,10.10
2023-03-07T11:23:18.977Z,12.82
2023-03-07T11:25:48.872Z,11.23
2023-03-07T11:28:28.377Z,10.75
2023-03-07T11:31:02.825Z,9.88
2023-03-07T11:33:58.706Z,12.77
2023-03-07T11:36:32.218Z,9.52
2023-03-07T11:39:03.408Z,11.45
2023-03-07T11:41:34.353Z,12.10
2023-03-07T11:44:26.880Z,9.30
2023-03-07T11:47:19.284Z,15.55
2023-03-07T11:50:15.089Z,8.23
2023-03-07T11:53:17.585Z,8.68
2023-03-07T11:55:59.543Z,14.43
2023-03-07T11:58:39.936Z,12.38
2023-03-07T12:01:17.946Z,6.38
2023-03-07T12:04:24.846Z,8.02
2023-03-07T12:07:04.825Z,11.63
2023-03-07T12:09:45.693Z,8.05
2023-03-07T12:12:37.650Z,7.78
2023-03-07T12:15:20.328Z,8.98
2023-03-07T12:18:04.171Z,6.15
2023-03-07T12:20:39.312Z,9.68
2023-03-07T12:23:16.135Z,7.07
2023-03-07T12:25:47.442Z,7.28
2023-03-07T12:28:22.199Z,7.40
2023-03-07T12:30:59.917Z,12.23
2023-03-07T12:33:35.656Z,7.85
2023-03-07T12:36:07.891Z,7.05
2023-03-07T12:38:42.405Z,13.75
2023-03-07T12:41:24.922Z,10.20
2023-03-07T12:43:59.058Z,11.13
2023-03-07T12:46:37.365Z,6.38
2023-03-07T12:49:13.782Z,8.15
2023-03-07T12:51:47.924Z,7.30
2023-03-07T12:54:26.345Z,9.55
2023-03-07T12:56:58.349Z,5.25
2023-03-07T12:59:28.858Z,8.35
2023-03-07T13:02:05.876Z,9.35
2023-03-07T13:04:38.641Z,9.80
2023-03-07T13:07:10.826Z,8.90
2023-03-07T13:09:43.242Z,7.38
2023-03-07T13:12:31.822Z,8.35
2023-03-07T13:15:01.576Z,12.50
2023-03-07T13:18:01.750Z,9.40
2023-03-07T13:21:07.205Z,8.13
2023-03-07T13:23:35.624Z,5.28
2023-03-07T13:26:09.102Z,9.73
2023-03-07T13:28:53.439Z,8.43
2023-03-07T13:31:29.157Z,10.15
2023-03-07T13:33:57.941Z,11.32
2023-03-07T13:36:37.799Z,9.13
2023-03-07T13:39:38.789Z,8.77
2023-03-07T13:42:47.818Z,11.98
2023-03-07T13:45:52.647Z,8.88
2023-03-07T13:49:01.942Z,7.20
2023-03-07T13:51:30.157Z,12.80
2023-03-07T13:54:04.414Z,11.15
2023-03-07T13:56:40.818Z,8.80
2023-03-07T13:59:24.406Z,6.85
2023-03-07T14:02:00.083Z,14.60
2023-03-07T14:04:40.027Z,11.20
2023-03-07T14:07:16.296Z,10.70
2023-03-07T14:09:48.974Z,5.55
2023-03-07T14:12:26.375Z,10.18
2023-03-07T14:15:17.588Z,12.85
2023-03-07T14:17:59.440Z,9.40
2023-03-07T14:20:36.407Z,9.13
2023-03-07T14:23:19.436Z,9.90
2023-03-07T14:25:52.389Z,10.55
2023-03-07T14:28:23.363Z,9.43
2023-03-07T14:30:58.628Z,9.45
2023-03-07T14:33:34.680Z,8.63
2023-03-07T14:36:04.697Z,13.02
2023-03-07T14:38:33.900Z,10.98
2023-03-07T14:41:34.354Z,11.23
2023-03-07T14:44:20.401Z,12.75
2023-03-07T14:47:01.476Z,10.50
2023-03-07T14:49:38.752Z,7.55
2023-03-07T14:52:16.347Z,10.55
2023-03-07T14:54:52.363Z,8.75
2023-03-07T14:57:29.065Z,7.38
2023-03-07T15:00:13.598Z,13.43
2023-03-07T15:02:49.204Z,10.20
2023-03-07T15:05:18.494Z,12.25
2023-03-07T15:07:48.093Z,12.35
2023-03-07T15:10:20.968Z,8.45
2023-03-07T15:12:52.757Z,10.00
2023-03-07T15:15:30.290Z,12.50
2023-03-07T15:18:04.630Z,10.90
2023-03-07T15:20:38.429Z,14.18
2023-03-07T15:23:09.311Z,13.93
2023-03-07T15:25:41.529Z,12.05
2023-03-07T15:28:18.924Z,9.02
2023-03-07T15:30:52.212Z,11.32
2023-03-07T15:33:26.129Z,11.77
2023-03-07T15:36:27.774Z,11.10
2023-03-07T15:39:24.992Z,11.93
2023-03-07T15:42:01.310Z,9.27
2023-03-07T15:44:29.955Z,10.00
2023-03-07T15:47:01.398Z,15.38
2023-03-07T15:49:38.083Z,12.18
2023-03-07T15:52:07.209Z,10.65
2023-03-07T15:54:39.594Z,15.32
2023-03-07T15:57:17.121Z,10.30
2023-03-07T15:59:51.504Z,9.43
2023-03-07T16:02:41.631Z,22.35
2023-03-07T16:05:32.909Z,10.27
2023-03-07T16:08:01.249Z,10.35
2023-03-07T16:10:32.899Z,12.23
2023-03-07T16:13:04.467Z,13.35
2023-03-07T16:15:32.900Z,12.40
2023-03-07T16:18:01.369Z,14.15
2023-03-07T16:20:30.980Z,10.73
2023-03-07T16:23:00.195Z,12.80
2023-03-07T16:25:32.058Z,10.57
2023-03-07T16:28:00.598Z,14.30
2023-03-07T16:30:30.484Z,13.93
2023-03-07T16:32:58.772Z,12.63
2023-03-07T16:35:31.985Z,11.18
2023-03-07T16:38:00.313Z,12.38
2023-03-07T16:40:29.624Z,16.60
2023-03-07T16:42:57.808Z,13.60
2023-03-07T16:45:28.357Z,11.07
2023-03-07T16:47:58.702Z,13.80
2023-03-07T16:50:28.566Z,14.18
2023-03-07T16:52:58.190Z,22.30
2023-03-07T16:55:26.978Z,16.77
2023-03-07T16:57:59.136Z,17.23
2023-03-07T17:00:28.724Z,15.45
2023-03-07T17:03:00.612Z,14.45
2023-03-07T17:05:30.523Z,15.85
2023-03-07T17:08:01.492Z,13.43
2023-03-07T17:10:30.044Z,19.45
2023-03-07T17:12:59.835Z,16.65
2023-03-07T17:15:30.979Z,15.55
2023-03-07T17:18:01.102Z,17.90
2023-03-07T17:20:29.872Z,20.13
2023-03-07T17:22:59.882Z,17.50
2023-03-07T17:25:29.003Z,14.27
2023-03-07T17:28:00.636Z,19.00
2023-03-07T17:30:30.787Z,22.23
2023-03-07T17:32:59.705Z,20.92
2023-03-07T17:35:30.311Z,19.50
2023-03-07T17:37:59.912Z,17.42
2023-03-07T17:40:30.278Z,19.42
2023-03-07T17:43:00.684Z,18.85
2023-03-07T17:45:28.867Z,24.08
2023-03-07T17:47:57.501Z,17.85
2023-03-07T17:50:26.005Z,15.57
2023-03-07T17:52:55.309Z,18.67
2023-03-07T17:55:26.393Z,15.90
2023-03-07T17:57:54.645Z,21.20
2023-03-07T18:00:23.710Z,16.30
2023-03-07T18:02:52.151Z,19.00
2023-03-07T18:05:20.678Z,25.52
2023-03-07T18:07:51.395Z,16.85
2023-03-07T18:10:19.703Z,23.90
2023-03-07T18:12:50.593Z,18.38
2023-03-07T18:15:20.415Z,17.23
2023-03-07T18:17:50.211Z,17.55
2023-03-07T18:20:21.245Z,20.92
2023-03-07T18:22:49.799Z,15.63
2023-03-07T18:25:19.320Z,20.65
2023-03-07T18:27:49.895Z,21.20
2023-03-07T18:30:18.755Z,20.08
2023-03-07T18:32:47.029Z,17.10
2023-03-07T18:35:16.617Z,21.38
2023-03-07T18:37:45.517Z,16.80
2023-03-07T18:40:14.688Z,16.05
2023-03-07T18:42:43.390Z,14.20
2023-03-07T18:45:13.805Z,20.83
2023-03-07T18:47:41.968Z,24.60
2023-03-07T18:50:11.730Z,19.02
2023-03-07T18:52:39.941Z,16.77
2023-03-07T18:55:11.260Z,21.23
2023-03-07T18:57:39.450Z,25.88
2023-03-07T19:00:11.419Z,28.13
2023-03-07T19:02:41.010Z,36.58
2023-03-07T19:05:10.658Z,31.17
2023-03-07T19:07:38.871Z,36.58
2023-03-07T19:10:11.389Z,33.70
2023-03-07T19:12:39.584Z,30.92
2023-03-07T19:15:11.845Z,28.65
2023-03-07T19:17:42.496Z,23.52
2023-03-07T19:20:12.158Z,26.33
2023-03-07T19:22:40.326Z,19.48
2023-03-07T19:25:09.812Z,15.30
2023-03-07T19:27:37.989Z,19.45
2023-03-07T19:30:07.345Z,19.20
2023-03-07T19:32:35.600Z,23.77
2023-03-07T19:35:05.664Z,21.75
2023-03-07T19:37:35.921Z,22.70
2023-03-07T19:40:06.901Z,19.73
2023-03-07T19:42:35.096Z,18.30
2023-03-07T19:45:03.558Z,31.50
2023-03-07T19:47:31.763Z,23.20
2023-03-07T19:49:59.907Z,21.40
2023-03-07T19:52:29.474Z,23.08
2023-03-07T19:54:57.658Z,26.02
2023-03-07T19:57:25.888Z,20.85
2023-03-07T19:59:56.261Z,24.60
2023-03-07T20:02:26.174Z,23.75
2023-03-07T20:04:55.444Z,20.88
2023-03-07T20:07:23.689Z,14.63
2023-03-07T20:09:53.872Z,17.35
2023-03-07T20:12:22.030Z,16.52
2023-03-07T20:14:50.364Z,16.00
2023-03-07T20:17:21.308Z,19.70
2023-03-07T20:19:51.508Z,20.58
2023-03-07T20:22:20.656Z,20.08
2023-03-07T20:24:50.668Z,22.83
2023-03-07T20:27:24.452Z,18.85
2023-03-07T20:29:52.865Z,24.08
2023-03-07T20:32:21.219Z,21.38
2023-03-07T20:34:52.510Z,19.65
2023-03-07T20:37:20.922Z,19.58
2023-03-07T20:39:49.078Z,15.43
2023-03-07T20:42:19.901Z,21.33
2023-03-07T20:44:49.496Z,19.20
2023-03-07T20:47:17.646Z,18.52
2023-03-07T20:49:45.991Z,19.55
2023-03-07T20:52:14.239Z,20.30
2023-03-07T20:54:44.033Z,16.83
2023-03-07T20:57:12.179Z,16.05
2023-03-07T20:59:40.314Z,16.20
2023-03-07T21:02:11.696Z,17.17
2023-03-07T21:04:39.973Z,23.75
2023-03-07T21:07:10.937Z,22.70
2023-03-07T21:09:39.135Z,20.92
2023-03-07T21:12:08.537Z,21.60
2023-03-07T21:14:36.782Z,29.65
2023-03-07T21:17:09.206Z,30.38
2023-03-07T21:19:37.508Z,31.65
2023-03-07T21:22:05.656Z,33.15
2023-03-07T21:24:33.845Z,23.10
2023-03-07T21:27:03.048Z,26.52
2023-03-07T21:29:31.315Z,18.17
2023-03-07T21:31:59.537Z,15.25
2023-03-07T21:34:29.068Z,17.63
2023-03-07T21:36:57.309Z,15.07
2023-03-07T21:39:25.911Z,22.20
2023-03-07T21:41:54.575Z,15.35
2023-03-07T21:44:22.796Z,14.63
2023-03-07T21:46:50.957Z,13.25
2023-03-07T21:49:19.152Z,15.20
2023-03-07T21:51:48.721Z,18.42
2023-03-07T21:54:18.069Z,15.73
2023-03-07T21:56:46.244Z,15.32
2023-03-07T21:59:14.419Z,19.88
2023-03-07T22:01:42.616Z,19.73
2023-03-07T22:04:10.785Z,18.58
2023-03-07T22:06:39.056Z,22.58
2023-03-07T22:09:08.576Z,15.90
2023-03-07T22:11:36.748Z,19.42
2023-03-07T22:14:05.000Z,24.65
2023-03-07T22:16:33.528Z,24.13
2023-03-07T22:19:01.713Z,18.27
2023-03-07T22:21:29.954Z,13.27
2023-03-07T22:24:00.800Z,15.50
2023-03-07T22:26:32.206Z,14.73
2023-03-07T22:29:00.681Z,13.90
2023-03-07T22:31:28.921Z,14.40
2023-03-07T22:33:58.813Z,13.60
2023-03-07T22:36:27.499Z,14.00
2023-03-07T22:38:56.224Z,12.93
2023-03-07T22:41:28.049Z,13.05
2023-03-07T22:44:00.075Z,12.80
2023-03-07T22:46:28.381Z,16.60
2023-03-07T22:48:57.603Z,15.60
2023-03-07T22:51:27.002Z,16.73
2023-03-07T22:53:55.472Z,13.63
2023-03-07T22:56:28.550Z,17.98
2023-03-07T22:58:58.371Z,22.23
2023-03-07T23:01:28.663Z,20.77
2023-03-07T23:03:59.792Z,17.60
2023-03-07T23:06:29.699Z,20.95
2023-03-07T23:08:59.875Z,18.45
2023-03-07T23:11:29.518Z,18.17
2023-03-07T23:13:59.353Z,17.23
2023-03-07T23:16:29.535Z,14.32
2023-03-07T23:18:59.577Z,16.75
2023-03-07T23:21:30.690Z,15.55
2023-03-07T23:24:00.064Z,11.77
2023-03-07T23:26:30.475Z,13.30
2023-03-07T23:29:00.695Z,16.05
2023-03-07T23:31:31.327Z,18.17
2023-03-07T23:34:01.860Z,18.20
2023-03-07T23:36:31.222Z,16.17
2023-03-07T23:39:00.320Z,15.95
2023-03-07T23:41:28.989Z,13.70
2023-03-07T23:44:00.699Z,15.07
2023-03-07T23:46:29.993Z,14.63
2023-03-07T23:49:01.007Z,14.23
2023-03-07T23:51:29.434Z,14.10
2023-03-07T23:53:57.636Z,12.10
2023-03-07T23:56:25.978Z,10.60
2023-03-07T23:58:54.855Z,14.98
